Time;durP1;ratioP1;P1;durP2;ratioP2;P2;SDS_P1;SDS_P2;PMS_P1;PMS_P2;Temp;Humidity;BMP_temperature;BMP_pressure;BME280_temperature;BME280_humidity;BME280_pressure;Samples;Min_cycle;Max_cycle;Signal;HPM_P1;HPM_P2
2022/12/27 00:02:35;;;;;;;1.20;0.70;;;;;;;;;;5022795;28;20246;-32
2022/12/27 00:05:17;;;;;;;2.07;0.67;;;;;;;;;;5010593;28;20270;-35
2022/12/27 00:07:59;;;;;;;2.87;0.67;;;;;;;;;;5006575;28;20213;-32
2022/12/27 00:10:46;;;;;;;1.43;0.70;;;;;;;;;;5007989;28;20204;-36
2022/12/27 00:13:24;;;;;;;0.80;0.60;;;;;;;;;;5003822;28;20360;-29
2022/12/27 00:16:06;;;;;;;1.23;0.80;;;;;;;;;;5013617;28;20194;-36
2022/12/27 00:21:26;;;;;;;2.17;0.73;;;;;;;;;;5131051;22;20230;-27
2022/12/27 00:30:14;;;;;;;0.90;0.73;;;;;;;;;;5050328;28;20213;-24
2022/12/27 00:41:25;;;;;;;0.63;0.63;;;;;;;;;;5780389;23;20734;-24
2022/12/27 00:44:05;;;;;;;0.83;0.53;;;;;;;;;;5075150;28;20217;-26
2022/12/27 00:46:47;;;;;;;2.77;0.90;;;;;;;;;;5081339;28;20228;-26
2022/12/27 00:49:26;;;;;;;1.47;0.70;;;;;;;;;;5090203;28;20232;-25
2022/12/27 00:52:07;;;;;;;0.97;0.60;;;;;;;;;;5069495;28;20240;-25
2022/12/27 00:55:00;;;;;;;2.70;0.90;;;;;;;;;;5067166;28;20209;-26
2022/12/27 01:05:53;;;;;;;1.97;0.93;;;;;;;;;;5041696;28;20313;-23
2022/12/27 01:08:47;;;;;;;2.30;1.00;;;;;;;;;;5046311;28;20392;-25
2022/12/27 01:11:33;;;;;;;1.83;0.70;;;;;;;;;;5297972;22;20279;-26
2022/12/27 01:23:48;;;;;;;0.73;0.70;;;;;;;;;;5033610;28;20693;-26
2022/12/27 01:26:30;;;;;;;0.93;0.70;;;;;;;;;;5045794;28;20309;-25
2022/12/27 01:29:14;;;;;;;1.70;0.80;;;;;;;;;;5036739;28;20221;-24
2022/12/27 01:31:57;;;;;;;1.53;0.80;;;;;;;;;;5049202;28;20279;-26
2022/12/27 01:34:46;;;;;;;1.83;0.83;;;;;;;;;;5049180;28;20241;-25
2022/12/27 01:37:32;;;;;;;1.10;0.90;;;;;;;;;;5035859;28;20288;-22
2022/12/27 01:40:29;;;;;;;0.70;0.70;;;;;;;;;;5031025;28;20207;-26
2022/12/27 01:43:07;;;;;;;1.50;0.73;;;;;;;;;;5019235;28;20265;-26
2022/12/27 01:45:41;;;;;;;3.47;0.80;;;;;;;;;;5017037;28;20231;-24
2022/12/27 02:07:43;;;;;;;1.13;0.70;;;;;;;;;;5054260;28;20230;-24
2022/12/27 02:13:54;;;;;;;1.60;0.90;;;;;;;;;;5019995;28;20236;-25
2022/12/27 02:16:46;;;;;;;0.97;0.80;;;;;;;;;;5023558;28;20221;-26
2022/12/27 02:21:59;;;;;;;2.43;0.80;;;;;;;;;;5051907;28;20237;-27
2022/12/27 02:24:44;;;;;;;3.60;0.90;;;;;;;;;;5042777;28;20213;-29
2022/12/27 02:27:19;;;;;;;1.43;0.67;;;;;;;;;;5042833;28;20281;-28
2022/12/27 02:29:55;;;;;;;3.90;1.00;;;;;;;;;;5044486;28;20214;-26
2022/12/27 02:32:25;;;;;;;3.47;0.70;;;;;;;;;;5039814;28;20230;-26
2022/12/27 02:34:55;;;;;;;1.70;0.70;;;;;;;;;;5031935;28;20213;-27
2022/12/27 02:37:25;;;;;;;1.63;0.90;;;;;;;;;;5034718;28;20206;-29
2022/12/27 02:39:52;;;;;;;2.13;0.80;;;;;;;;;;5044051;28;20210;-29
2022/12/27 02:53:46;;;;;;;1.03;0.80;;;;;;;;;;5047055;28;20422;-30
2022/12/27 02:59:11;;;;;;;2.77;0.67;;;;;;;;;;5044190;28;20205;-27
2022/12/27 03:04:39;;;;;;;1.60;0.63;;;;;;;;;;5031556;28;20206;-27
2022/12/27 03:07:15;;;;;;;1.37;0.67;;;;;;;;;;5032210;28;20229;-31
2022/12/27 03:18:23;;;;;;;1.03;0.70;;;;;;;;;;5042230;28;20241;-27
2022/12/27 03:26:21;;;;;;;0.40;0.40;;;;;;;;;;5036315;28;20233;-30
2022/12/27 03:34:34;;;;;;;0.70;0.70;;;;;;;;;;5050958;28;20185;-27
2022/12/27 03:39:50;;;;;;;0.97;0.70;;;;;;;;;;5032635;28;20205;-27
2022/12/27 03:45:06;;;;;;;1.30;0.63;;;;;;;;;;5039609;28;20201;-28
2022/12/27 03:47:36;;;;;;;0.60;0.60;;;;;;;;;;5043267;28;20250;-29
2022/12/27 03:50:07;;;;;;;1.87;0.67;;;;;;;;;;5044017;28;20255;-27
2022/12/27 03:52:40;;;;;;;2.00;0.60;;;;;;;;;;5037515;28;20230;-28
2022/12/27 03:55:08;;;;;;;1.17;0.80;;;;;;;;;;5037415;28;20213;-27
2022/12/27 03:57:35;;;;;;;0.97;0.80;;;;;;;;;;5033227;28;20202;-28
2022/12/27 04:00:03;;;;;;;1.90;0.80;;;;;;;;;;5033975;28;20215;-27
2022/12/27 04:02:30;;;;;;;1.30;0.53;;;;;;;;;;5040122;28;20226;-28
2022/12/27 04:04:57;;;;;;;0.60;0.60;;;;;;;;;;5045557;28;20206;-28
2022/12/27 04:07:25;;;;;;;1.57;0.60;;;;;;;;;;5035635;28;20222;-28
2022/12/27 04:34:42;;;;;;;0.67;0.67;;;;;;;;;;5030667;28;20240;-28
2022/12/27 04:37:10;;;;;;;2.13;0.80;;;;;;;;;;5032800;28;20218;-30
2022/12/27 04:39:39;;;;;;;1.20;0.60;;;;;;;;;;5038402;28;20205;-28
2022/12/27 04:55:57;;;;;;;1.47;0.80;;;;;;;;;;5038087;28;20208;-30
2022/12/27 04:58:24;;;;;;;1.43;1.13;;;;;;;;;;5040870;28;20213;-27
2022/12/27 05:03:37;;;;;;;1.30;0.67;;;;;;;;;;5031477;28;20280;-29
2022/12/27 05:06:04;;;;;;;1.67;0.93;;;;;;;;;;5031688;28;20234;-29
2022/12/27 05:14:03;;;;;;;0.60;0.60;;;;;;;;;;5038609;28;20328;-29
2022/12/27 05:16:31;;;;;;;1.70;0.70;;;;;;;;;;5045500;28;20507;-27
2022/12/27 05:18:58;;;;;;;0.70;0.70;;;;;;;;;;5044475;28;20206;-28
2022/12/27 05:21:26;;;;;;;1.77;0.80;;;;;;;;;;5035059;28;20237;-27
2022/12/27 05:26:39;;;;;;;1.13;0.87;;;;;;;;;;5039934;28;20226;-29
2022/12/27 05:29:07;;;;;;;2.67;0.60;;;;;;;;;;5043971;28;20210;-26
2022/12/27 05:31:35;;;;;;;0.80;0.80;;;;;;;;;;5044417;28;20719;-27
2022/12/27 05:34:02;;;;;;;0.77;0.77;;;;;;;;;;5044442;28;20213;-29
2022/12/27 05:36:29;;;;;;;4.70;0.80;;;;;;;;;;5045374;28;20206;-27
2022/12/27 05:38:56;;;;;;;0.90;0.77;;;;;;;;;;5045987;28;20297;-27
2022/12/27 05:41:23;;;;;;;1.20;0.73;;;;;;;;;;5052811;28;20233;-31
2022/12/27 05:43:52;;;;;;;1.20;0.90;;;;;;;;;;5041337;28;20214;-27
2022/12/27 05:46:20;;;;;;;0.70;0.70;;;;;;;;;;5042323;28;20229;-28
2022/12/27 05:48:47;;;;;;;3.07;1.03;;;;;;;;;;5038916;28;20231;-27
2022/12/27 05:51:15;;;;;;;0.97;0.80;;;;;;;;;;5046595;28;20288;-26
2022/12/27 05:53:42;;;;;;;1.87;0.70;;;;;;;;;;5041105;28;20465;-28
2022/12/27 05:56:12;;;;;;;1.57;0.77;;;;;;;;;;5040766;28;20201;-26
2022/12/27 05:58:39;;;;;;;0.70;0.70;;;;;;;;;;5038529;28;20210;-29
2022/12/27 06:01:10;;;;;;;3.30;0.80;;;;;;;;;;5047016;28;20318;-29
2022/12/27 06:03:37;;;;;;;1.33;0.73;;;;;;;;;;5045880;28;20221;-28
2022/12/27 06:06:05;;;;;;;0.67;0.60;;;;;;;;;;5039656;28;20221;-29
2022/12/27 06:08:32;;;;;;;0.90;0.90;;;;;;;;;;5047276;28;20202;-29
2022/12/27 06:11:03;;;;;;;1.90;0.83;;;;;;;;;;5052921;28;20451;-28
2022/12/27 06:13:31;;;;;;;1.43;0.90;;;;;;;;;;5045787;28;20238;-28
2022/12/27 06:15:59;;;;;;;1.20;0.87;;;;;;;;;;5049344;28;20213;-28
2022/12/27 06:18:27;;;;;;;1.50;1.10;;;;;;;;;;5035338;28;20199;-28
2022/12/27 06:20:54;;;;;;;1.50;1.00;;;;;;;;;;5045129;28;20225;-27
2022/12/27 06:23:21;;;;;;;2.70;1.10;;;;;;;;;;5046172;28;20206;-27
2022/12/27 06:25:48;;;;;;;0.70;0.70;;;;;;;;;;5049985;28;20206;-28
2022/12/27 06:28:15;;;;;;;1.37;0.63;;;;;;;;;;5039888;28;20206;-27
2022/12/27 06:30:43;;;;;;;2.03;0.83;;;;;;;;;;5035125;28;20689;-30
2022/12/27 06:33:10;;;;;;;1.47;0.90;;;;;;;;;;5044609;28;20214;-27
2022/12/27 06:35:38;;;;;;;1.20;0.90;;;;;;;;;;5041176;28;20217;-27
2022/12/27 06:38:05;;;;;;;1.53;0.80;;;;;;;;;;5049371;28;20225;-29
2022/12/27 06:40:32;;;;;;;1.10;0.83;;;;;;;;;;5048592;28;20301;-26
2022/12/27 06:42:59;;;;;;;1.17;0.97;;;;;;;;;;5038928;28;20213;-27
2022/12/27 06:45:26;;;;;;;0.90;0.90;;;;;;;;;;5049872;28;20210;-27
2022/12/27 06:47:54;;;;;;;2.93;1.30;;;;;;;;;;5035446;28;20230;-27
2022/12/27 06:50:21;;;;;;;2.70;0.93;;;;;;;;;;5039194;28;20217;-29
2022/12/27 06:52:49;;;;;;;1.10;1.10;;;;;;;;;;5035122;28;20210;-29
2022/12/27 06:55:16;;;;;;;0.77;0.77;;;;;;;;;;5051865;28;20206;-28
2022/12/27 06:57:43;;;;;;;0.73;0.60;;;;;;;;;;5036936;28;20199;-30
2022/12/27 07:00:12;;;;;;;1.00;1.00;;;;;;;;;;5038240;28;20213;-27
2022/12/27 07:02:39;;;;;;;1.43;1.00;;;;;;;;;;5042541;28;20251;-26
2022/12/27 07:05:06;;;;;;;2.93;1.13;;;;;;;;;;5038821;28;20215;-29
2022/12/27 07:07:33;;;;;;;2.67;1.37;;;;;;;;;;5048565;28;20230;-27
2022/12/27 07:10:02;;;;;;;1.63;1.40;;;;;;;;;;5038929;28;20290;-27
2022/12/27 07:12:29;;;;;;;2.13;1.97;;;;;;;;;;5033631;28;20225;-27
2022/12/27 07:14:56;;;;;;;0.93;0.87;;;;;;;;;;5043857;28;20216;-28
2022/12/27 07:17:23;;;;;;;1.50;1.20;;;;;;;;;;5049512;28;20202;-27
2022/12/27 07:19:50;;;;;;;0.97;0.97;;;;;;;;;;5038345;28;20202;-29
2022/12/27 07:22:17;;;;;;;1.13;1.00;;;;;;;;;;5041548;28;20696;-26
2022/12/27 07:24:44;;;;;;;2.87;1.47;;;;;;;;;;5044934;28;20359;-28
2022/12/27 07:27:14;;;;;;;3.00;1.37;;;;;;;;;;5047440;28;20233;-28
2022/12/27 07:29:41;;;;;;;4.20;1.03;;;;;;;;;;5037979;28;20201;-28
2022/12/27 07:32:08;;;;;;;1.10;0.80;;;;;;;;;;5037789;28;20223;-27
2022/12/27 07:34:35;;;;;;;1.60;1.20;;;;;;;;;;5033262;28;20207;-27
2022/12/27 07:37:02;;;;;;;1.97;1.50;;;;;;;;;;5032967;28;20568;-27
2022/12/27 07:39:29;;;;;;;1.90;1.57;;;;;;;;;;5050671;28;20573;-27
2022/12/27 07:41:56;;;;;;;1.57;1.47;;;;;;;;;;5039083;28;20229;-26
2022/12/27 07:44:24;;;;;;;1.67;1.40;;;;;;;;;;5040009;28;20210;-26
2022/12/27 07:46:51;;;;;;;2.70;1.60;;;;;;;;;;5044396;28;20226;-28
2022/12/27 07:49:19;;;;;;;2.13;1.70;;;;;;;;;;5051306;28;20205;-26
2022/12/27 07:51:46;;;;;;;1.10;1.10;;;;;;;;;;5037663;28;20242;-27
2022/12/27 07:54:13;;;;;;;1.80;1.70;;;;;;;;;;5037062;28;20210;-28
2022/12/27 07:56:40;;;;;;;1.20;1.10;;;;;;;;;;5037973;28;20202;-26
2022/12/27 07:59:11;;;;;;;2.37;1.30;;;;;;;;;;5038282;28;20213;-26
2022/12/27 08:04:25;;;;;;;1.10;1.00;;;;;;;;;;5043132;28;20205;-26
2022/12/27 08:06:52;;;;;;;2.40;1.30;;;;;;;;;;5033995;28;20222;-27
2022/12/27 08:09:24;;;;;;;1.23;1.13;;;;;;;;;;5048455;28;20217;-28
2022/12/27 08:11:51;;;;;;;2.10;1.20;;;;;;;;;;5041019;28;20230;-26
2022/12/27 08:14:18;;;;;;;2.63;1.00;;;;;;;;;;5040408;28;20660;-25
2022/12/27 08:16:47;;;;;;;1.13;1.07;;;;;;;;;;5037612;28;20301;-26
2022/12/27 08:19:57;;;;;;;2.17;1.40;;;;;;;;;;5289336;23;20232;-25
2022/12/27 08:22:44;;;;;;;2.77;1.10;;;;;;;;;;5054753;28;20237;-22
2022/12/27 08:25:23;;;;;;;1.73;1.63;;;;;;;;;;5058749;28;20259;-23
2022/12/27 08:28:20;;;;;;;2.90;1.30;;;;;;;;;;5064030;28;20317;-24
2022/12/27 08:31:14;;;;;;;1.90;1.40;;;;;;;;;;5057935;28;20265;-25
2022/12/27 08:33:53;;;;;;;0.90;0.90;;;;;;;;;;5064728;28;20244;-25
2022/12/27 08:36:29;;;;;;;1.63;1.27;;;;;;;;;;5065383;28;20296;-24
2022/12/27 08:39:06;;;;;;;1.37;1.27;;;;;;;;;;5056738;28;20205;-26
2022/12/27 08:41:35;;;;;;;1.87;1.43;;;;;;;;;;5062297;28;20307;-25
2022/12/27 08:44:12;;;;;;;1.27;1.20;;;;;;;;;;5059222;28;20209;-24
2022/12/27 08:46:58;;;;;;;1.50;1.40;;;;;;;;;;5072166;28;20201;-23
2022/12/27 08:49:33;;;;;;;1.37;1.27;;;;;;;;;;5076579;28;20205;-25
2022/12/27 08:54:49;;;;;;;1.77;1.40;;;;;;;;;;5061584;28;20288;-24
2022/12/27 08:57:24;;;;;;;2.73;1.20;;;;;;;;;;5068303;28;20247;-25
2022/12/27 08:59:57;;;;;;;1.57;1.47;;;;;;;;;;5062791;28;20205;-26
2022/12/27 09:02:34;;;;;;;1.30;0.90;;;;;;;;;;5067612;28;20225;-26
2022/12/27 09:05:15;;;;;;;1.20;1.10;;;;;;;;;;5070858;28;20201;-26
2022/12/27 09:07:49;;;;;;;1.30;1.20;;;;;;;;;;5068693;28;20279;-23
2022/12/27 09:10:21;;;;;;;4.03;1.50;;;;;;;;;;5066730;28;20265;-24
2022/12/27 09:12:52;;;;;;;1.43;1.33;;;;;;;;;;5065950;28;20214;-22
2022/12/27 09:15:25;;;;;;;1.37;1.27;;;;;;;;;;5071389;28;20216;-26
2022/12/27 09:17:53;;;;;;;1.23;1.10;;;;;;;;;;5076377;28;20206;-25
2022/12/27 09:20:30;;;;;;;2.70;1.33;;;;;;;;;;5076075;28;20209;-23
2022/12/27 09:28:50;;;;;;;1.50;1.40;;;;;;;;;;5039689;28;20233;-27
2022/12/27 09:31:27;;;;;;;2.23;1.27;;;;;;;;;;5040723;28;20744;-27
2022/12/27 09:33:58;;;;;;;1.63;1.43;;;;;;;;;;5048639;28;20656;-27
2022/12/27 09:36:32;;;;;;;2.07;1.40;;;;;;;;;;5299185;23;20244;-26
2022/12/27 09:39:04;;;;;;;1.30;1.20;;;;;;;;;;5026653;28;20225;-26
2022/12/27 09:41:59;;;;;;;1.97;1.40;;;;;;;;;;5013836;28;20262;-26
2022/12/27 09:44:35;;;;;;;4.03;1.60;;;;;;;;;;5006638;28;20218;-28
2022/12/27 09:47:12;;;;;;;1.60;1.50;;;;;;;;;;4995987;28;20207;-26
2022/12/27 09:49:50;;;;;;;1.50;1.40;;;;;;;;;;4997922;28;20199;-25
2022/12/27 09:52:29;;;;;;;2.70;1.50;;;;;;;;;;5010315;28;20246;-26
2022/12/27 09:55:10;;;;;;;3.80;1.63;;;;;;;;;;4996359;28;20212;-27
2022/12/27 09:57:41;;;;;;;1.80;1.60;;;;;;;;;;5003418;28;20208;-25
2022/12/27 10:00:22;;;;;;;2.93;2.00;;;;;;;;;;5001551;28;20223;-28
2022/12/27 10:08:30;;;;;;;2.53;1.57;;;;;;;;;;5063585;28;20229;-26
2022/12/27 10:14:09;;;;;;;1.77;1.63;;;;;;;;;;5040788;28;20214;-25
2022/12/27 10:17:09;;;;;;;3.60;1.70;;;;;;;;;;5053987;28;20205;-24
2022/12/27 10:24:46;;;;;;;2.07;1.87;;;;;;;;;;5060047;28;20563;-25
2022/12/27 10:27:14;;;;;;;1.60;1.50;;;;;;;;;;5050863;28;20204;-24
2022/12/27 10:29:42;;;;;;;5.03;2.10;;;;;;;;;;5053647;28;20255;-27
2022/12/27 10:32:10;;;;;;;5.07;1.70;;;;;;;;;;5045291;28;20218;-26
2022/12/27 10:34:37;;;;;;;1.90;1.80;;;;;;;;;;5041219;28;20217;-27
2022/12/27 10:37:05;;;;;;;1.83;1.73;;;;;;;;;;5035086;28;20293;-27
2022/12/27 10:39:34;;;;;;;1.60;1.50;;;;;;;;;;5026828;28;20203;-23
2022/12/27 10:42:05;;;;;;;3.10;1.87;;;;;;;;;;5030521;28;20241;-26
2022/12/27 10:44:33;;;;;;;3.57;1.90;;;;;;;;;;5039928;28;20210;-27
2022/12/27 10:47:00;;;;;;;5.83;2.07;;;;;;;;;;5031670;28;20593;-26
2022/12/27 10:49:28;;;;;;;2.03;1.87;;;;;;;;;;5029713;28;20237;-26
2022/12/27 10:51:56;;;;;;;2.50;1.63;;;;;;;;;;5018960;28;20230;-27
2022/12/27 10:54:25;;;;;;;5.87;1.63;;;;;;;;;;5020078;28;20207;-25
2022/12/27 10:56:52;;;;;;;2.83;2.20;;;;;;;;;;5025953;28;20449;-27
2022/12/27 10:59:21;;;;;;;2.80;1.70;;;;;;;;;;5022384;28;20218;-26
2022/12/27 11:01:50;;;;;;;2.80;2.00;;;;;;;;;;5031863;28;20223;-27
2022/12/27 11:04:18;;;;;;;3.63;2.03;;;;;;;;;;5036374;28;20260;-23
2022/12/27 11:06:47;;;;;;;3.20;2.00;;;;;;;;;;5017744;28;20203;-25
2022/12/27 11:09:28;;;;;;;3.03;1.70;;;;;;;;;;5010842;28;20227;-27
2022/12/27 11:12:10;;;;;;;3.43;2.00;;;;;;;;;;5014003;28;20234;-27
2022/12/27 11:14:39;;;;;;;2.80;2.00;;;;;;;;;;5035649;28;20255;-26
2022/12/27 11:17:08;;;;;;;2.53;1.80;;;;;;;;;;5038370;28;20205;-27
2022/12/27 11:19:38;;;;;;;1.93;1.73;;;;;;;;;;5034160;28;20213;-27
2022/12/27 11:22:06;;;;;;;2.00;1.87;;;;;;;;;;5034260;28;20218;-25
2022/12/27 11:24:33;;;;;;;3.03;1.70;;;;;;;;;;5036582;28;20252;-24
2022/12/27 11:27:00;;;;;;;1.93;1.47;;;;;;;;;;5030520;28;20200;-26
2022/12/27 11:29:29;;;;;;;1.77;1.47;;;;;;;;;;5033723;28;20225;-27
2022/12/27 11:31:57;;;;;;;2.10;1.50;;;;;;;;;;5036967;28;20225;-27
2022/12/27 11:34:29;;;;;;;1.60;1.33;;;;;;;;;;5039828;28;20207;-26
2022/12/27 11:37:02;;;;;;;4.03;1.40;;;;;;;;;;5028524;28;20229;-27
2022/12/27 11:39:47;;;;;;;2.70;1.10;;;;;;;;;;5037370;28;20194;-26
2022/12/27 11:42:18;;;;;;;1.10;1.00;;;;;;;;;;5034571;28;20241;-26
2022/12/27 11:44:47;;;;;;;3.23;1.40;;;;;;;;;;5028881;28;20202;-27
2022/12/27 11:47:23;;;;;;;3.07;1.50;;;;;;;;;;5029392;28;20195;-26
2022/12/27 11:49:52;;;;;;;2.60;1.40;;;;;;;;;;5036751;28;20309;-27
2022/12/27 11:52:32;;;;;;;1.10;1.10;;;;;;;;;;5030195;28;20232;-27
2022/12/27 11:55:18;;;;;;;4.40;1.27;;;;;;;;;;5034966;28;20225;-24
2022/12/27 11:58:09;;;;;;;2.47;1.10;;;;;;;;;;5032925;28;20213;-26
2022/12/27 12:00:41;;;;;;;4.10;1.00;;;;;;;;;;4995576;28;20210;-23
2022/12/27 12:03:31;;;;;;;3.33;1.17;;;;;;;;;;5037255;28;20205;-25
2022/12/27 12:06:05;;;;;;;2.70;1.17;;;;;;;;;;5025378;28;20214;-25
2022/12/27 12:08:51;;;;;;;3.13;1.30;;;;;;;;;;5032349;28;20222;-24
2022/12/27 12:11:27;;;;;;;1.10;0.90;;;;;;;;;;5029902;28;20583;-24
2022/12/27 12:14:05;;;;;;;2.00;1.07;;;;;;;;;;5027514;28;20207;-25
2022/12/27 12:16:40;;;;;;;2.40;1.10;;;;;;;;;;5035020;28;20193;-26
2022/12/27 12:19:17;;;;;;;4.33;1.53;;;;;;;;;;5039106;28;20205;-25
2022/12/27 12:21:48;;;;;;;1.17;1.00;;;;;;;;;;5029295;28;20229;-26
2022/12/27 12:24:25;;;;;;;1.97;1.20;;;;;;;;;;5034560;28;20205;-26
2022/12/27 12:26:58;;;;;;;2.30;1.30;;;;;;;;;;5032738;28;20210;-27
2022/12/27 12:29:31;;;;;;;1.07;1.00;;;;;;;;;;5032365;28;20238;-26
2022/12/27 12:32:25;;;;;;;3.90;1.57;;;;;;;;;;5033992;28;20242;-27
2022/12/27 12:35:07;;;;;;;2.67;1.20;;;;;;;;;;5005163;28;20201;-25
2022/12/27 12:37:49;;;;;;;1.63;1.07;;;;;;;;;;5028109;28;20212;-25
2022/12/27 12:40:28;;;;;;;4.10;1.30;;;;;;;;;;5038297;28;20281;-27
2022/12/27 12:43:00;;;;;;;0.93;0.80;;;;;;;;;;5025387;28;20218;-24
2022/12/27 12:45:35;;;;;;;2.57;1.20;;;;;;;;;;5030458;28;20207;-24
2022/12/27 12:48:18;;;;;;;1.90;1.03;;;;;;;;;;5034447;28;20571;-25
2022/12/27 12:50:56;;;;;;;3.80;1.10;;;;;;;;;;5031118;28;20237;-24
2022/12/27 12:53:28;;;;;;;2.83;1.20;;;;;;;;;;5035711;28;20210;-27
2022/12/27 12:56:01;;;;;;;2.77;1.20;;;;;;;;;;5041487;28;20194;-25
2022/12/27 12:58:35;;;;;;;2.77;0.90;;;;;;;;;;5029363;28;20206;-28
2022/12/27 13:01:08;;;;;;;0.90;0.90;;;;;;;;;;5036693;28;20526;-23
2022/12/27 13:03:45;;;;;;;1.27;0.87;;;;;;;;;;5036913;28;20202;-24
2022/12/27 13:06:20;;;;;;;1.37;0.80;;;;;;;;;;5031699;28;20207;-26
2022/12/27 13:08:52;;;;;;;2.20;1.20;;;;;;;;;;5030317;28;20230;-25
2022/12/27 13:11:27;;;;;;;3.40;1.13;;;;;;;;;;5033895;28;20222;-24
2022/12/27 13:14:02;;;;;;;2.17;0.90;;;;;;;;;;5029377;28;20305;-24
2022/12/27 13:16:35;;;;;;;3.60;0.90;;;;;;;;;;5035289;28;20193;-25
2022/12/27 13:19:07;;;;;;;0.77;0.77;;;;;;;;;;5033370;28;20195;-24
2022/12/27 13:21:45;;;;;;;2.73;0.90;;;;;;;;;;5029899;28;20765;-27
2022/12/27 13:24:16;;;;;;;2.57;1.07;;;;;;;;;;5038240;28;20234;-25
2022/12/27 13:26:48;;;;;;;3.00;0.97;;;;;;;;;;5034696;28;20193;-26
2022/12/27 13:29:30;;;;;;;2.67;0.90;;;;;;;;;;5032410;28;20226;-26
2022/12/27 13:32:02;;;;;;;2.67;0.60;;;;;;;;;;5034506;28;20256;-24
2022/12/27 13:34:33;;;;;;;1.93;0.73;;;;;;;;;;5043029;28;20290;-27
2022/12/27 13:37:06;;;;;;;1.47;1.20;;;;;;;;;;5019871;28;20202;-28
2022/12/27 13:39:39;;;;;;;3.93;0.90;;;;;;;;;;5038195;28;20577;-24
2022/12/27 13:42:20;;;;;;;0.70;0.70;;;;;;;;;;5034679;28;20219;-26
2022/12/27 13:44:54;;;;;;;2.10;0.80;;;;;;;;;;5037158;28;20237;-27
2022/12/27 13:47:30;;;;;;;1.97;0.80;;;;;;;;;;5038465;28;20278;-24
2022/12/27 13:50:03;;;;;;;2.67;0.90;;;;;;;;;;5040050;28;20221;-25
2022/12/27 13:52:40;;;;;;;4.23;3.83;;;;;;;;;;5031374;28;20227;-27
2022/12/27 13:55:16;;;;;;;4.23;3.43;;;;;;;;;;5041537;28;20198;-23
2022/12/27 13:57:54;;;;;;;1.33;1.00;;;;;;;;;;5022741;28;20210;-25
2022/12/27 14:00:22;;;;;;;0.90;0.90;;;;;;;;;;5034996;28;20199;-24
2022/12/27 14:03:04;;;;;;;3.60;1.07;;;;;;;;;;5033672;28;20210;-26
2022/12/27 14:05:46;;;;;;;0.90;0.80;;;;;;;;;;5042282;28;20205;-23
2022/12/27 14:08:18;;;;;;;2.57;1.30;;;;;;;;;;5035404;28;20209;-27
2022/12/27 14:10:47;;;;;;;1.23;0.80;;;;;;;;;;5035653;28;20215;-25
2022/12/27 14:13:25;;;;;;;1.80;1.13;;;;;;;;;;5029195;28;20205;-27
2022/12/27 14:16:10;;;;;;;2.77;0.93;;;;;;;;;;5042430;28;20218;-26
2022/12/27 14:18:44;;;;;;;1.63;1.00;;;;;;;;;;5033229;28;20199;-25
2022/12/27 14:21:22;;;;;;;1.90;1.00;;;;;;;;;;5026191;28;20705;-25
2022/12/27 14:23:55;;;;;;;4.50;1.20;;;;;;;;;;5037444;28;20226;-26
2022/12/27 14:26:40;;;;;;;2.77;1.20;;;;;;;;;;5037124;28;20241;-25
2022/12/27 14:29:27;;;;;;;4.70;1.33;;;;;;;;;;5029114;28;20992;-26
2022/12/27 14:32:06;;;;;;;2.93;1.33;;;;;;;;;;5037777;28;20238;-26
2022/12/27 14:35:06;;;;;;;2.80;1.10;;;;;;;;;;5042858;28;20598;-28
2022/12/27 14:37:52;;;;;;;1.83;1.23;;;;;;;;;;4986781;28;20213;-24
2022/12/27 14:40:29;;;;;;;2.63;1.17;;;;;;;;;;4999242;28;20199;-26
2022/12/27 14:43:11;;;;;;;2.27;1.00;;;;;;;;;;5014271;28;20207;-28
2022/12/27 14:45:51;;;;;;;1.93;1.10;;;;;;;;;;5035928;28;20655;-26
2022/12/27 14:48:38;;;;;;;5.70;1.23;;;;;;;;;;5027396;28;20210;-26
2022/12/27 14:51:23;;;;;;;2.70;1.27;;;;;;;;;;5033366;28;20479;-24
2022/12/27 14:54:02;;;;;;;3.57;1.00;;;;;;;;;;5035762;28;20213;-25
2022/12/27 14:56:33;;;;;;;3.13;1.17;;;;;;;;;;5022488;28;20217;-26
2022/12/27 14:59:06;;;;;;;2.10;1.20;;;;;;;;;;5030665;28;20200;-27
2022/12/27 15:01:43;;;;;;;1.37;1.10;;;;;;;;;;5031516;28;20250;-27
2022/12/27 15:04:27;;;;;;;2.77;1.27;;;;;;;;;;5033774;28;20202;-27
2022/12/27 15:07:02;;;;;;;1.80;0.90;;;;;;;;;;5026975;28;20202;-27
2022/12/27 15:09:38;;;;;;;0.90;0.80;;;;;;;;;;5036699;28;20226;-27
2022/12/27 15:12:13;;;;;;;3.63;1.10;;;;;;;;;;5033214;28;20226;-27
2022/12/27 15:14:52;;;;;;;2.57;1.20;;;;;;;;;;5036162;28;20202;-27
2022/12/27 15:17:24;;;;;;;3.23;1.00;;;;;;;;;;5031613;28;20211;-26
2022/12/27 15:20:06;;;;;;;2.33;1.33;;;;;;;;;;5031083;28;20218;-26
2022/12/27 15:22:42;;;;;;;2.33;1.27;;;;;;;;;;5133319;22;20234;-28
2022/12/27 15:25:16;;;;;;;4.63;1.50;;;;;;;;;;5053159;28;20205;-25
2022/12/27 15:27:47;;;;;;;2.77;1.10;;;;;;;;;;5036647;28;20205;-30
2022/12/27 15:30:20;;;;;;;3.70;1.30;;;;;;;;;;5034353;28;20232;-30
2022/12/27 15:32:53;;;;;;;3.67;1.33;;;;;;;;;;5013761;28;20213;-29
2022/12/27 15:35:34;;;;;;;4.07;1.40;;;;;;;;;;5025185;28;20252;-27
2022/12/27 15:38:07;;;;;;;2.40;1.90;;;;;;;;;;5013644;28;20206;-29
2022/12/27 15:40:40;;;;;;;1.87;1.63;;;;;;;;;;5011164;28;20576;-28
2022/12/27 15:43:13;;;;;;;3.27;2.00;;;;;;;;;;5027825;28;20575;-28
2022/12/27 15:45:45;;;;;;;3.80;2.10;;;;;;;;;;5029238;28;20210;-27
2022/12/27 15:48:32;;;;;;;2.80;1.67;;;;;;;;;;5012289;28;20214;-29
2022/12/27 15:51:04;;;;;;;3.13;2.20;;;;;;;;;;5017436;28;20230;-29
2022/12/27 15:53:41;;;;;;;3.30;2.30;;;;;;;;;;5014554;28;20303;-27
2022/12/27 15:56:22;;;;;;;2.20;2.00;;;;;;;;;;5012622;28;20199;-29
2022/12/27 15:59:04;;;;;;;6.87;2.47;;;;;;;;;;5026374;28;20205;-29
2022/12/27 16:01:34;;;;;;;3.23;2.33;;;;;;;;;;5029508;28;20218;-31
2022/12/27 16:04:21;;;;;;;3.67;2.07;;;;;;;;;;5011119;28;20218;-29
2022/12/27 16:06:51;;;;;;;2.90;1.70;;;;;;;;;;5011452;28;20206;-28
2022/12/27 16:09:20;;;;;;;2.00;1.83;;;;;;;;;;5021206;28;20223;-31
2022/12/27 16:12:04;;;;;;;2.77;1.93;;;;;;;;;;5020803;28;20234;-29
2022/12/27 16:14:32;;;;;;;5.77;3.03;;;;;;;;;;5028064;28;20606;-27
2022/12/27 16:17:06;;;;;;;3.27;2.07;;;;;;;;;;5030067;28;20661;-31
2022/12/27 16:19:49;;;;;;;1.97;1.73;;;;;;;;;;5026878;28;20221;-25
2022/12/27 16:22:26;;;;;;;2.40;1.90;;;;;;;;;;5018056;28;20238;-31
2022/12/27 16:24:53;;;;;;;2.57;2.30;;;;;;;;;;5017453;28;20644;-30
2022/12/27 16:27:23;;;;;;;3.53;2.10;;;;;;;;;;5014503;28;20209;-28
2022/12/27 16:29:51;;;;;;;4.07;2.43;;;;;;;;;;5022081;28;20712;-28
2022/12/27 16:32:20;;;;;;;5.13;2.30;;;;;;;;;;5018596;28;20219;-29
2022/12/27 16:34:50;;;;;;;4.70;2.07;;;;;;;;;;5018459;28;20242;-27
2022/12/27 16:37:29;;;;;;;3.43;2.43;;;;;;;;;;5022522;28;20253;-27
2022/12/27 16:40:14;;;;;;;4.47;2.50;;;;;;;;;;5023779;28;20207;-31
2022/12/27 16:42:56;;;;;;;10.40;3.13;;;;;;;;;;5015167;28;20231;-29
2022/12/27 16:45:29;;;;;;;3.20;2.10;;;;;;;;;;5020732;28;20210;-27
2022/12/27 16:48:04;;;;;;;2.90;1.80;;;;;;;;;;5012775;28;20202;-25
2022/12/27 16:50:46;;;;;;;3.20;1.80;;;;;;;;;;5030088;28;20246;-28
2022/12/27 16:53:18;;;;;;;3.20;2.03;;;;;;;;;;5027692;28;20286;-30
2022/12/27 16:55:58;;;;;;;4.40;2.27;;;;;;;;;;5011393;28;20583;-26
2022/12/27 16:58:33;;;;;;;2.17;1.93;;;;;;;;;;5023501;28;20213;-28
2022/12/27 17:01:01;;;;;;;3.37;2.23;;;;;;;;;;5015778;28;20222;-29
2022/12/27 17:03:49;;;;;;;3.77;2.30;;;;;;;;;;5012544;28;20576;-34
2022/12/27 17:06:34;;;;;;;4.13;2.37;;;;;;;;;;5014866;28;20718;-25
2022/12/27 17:09:20;;;;;;;2.83;2.00;;;;;;;;;;5032036;28;20233;-31
2022/12/27 17:12:03;;;;;;;3.87;2.07;;;;;;;;;;5012373;28;20245;-30
2022/12/27 17:14:34;;;;;;;4.20;2.47;;;;;;;;;;5021465;28;20632;-30
2022/12/27 17:17:03;;;;;;;4.40;2.50;;;;;;;;;;5022487;28;20291;-26
2022/12/27 17:19:32;;;;;;;8.17;3.00;;;;;;;;;;5023525;28;20558;-30
2022/12/27 17:22:01;;;;;;;5.03;3.50;;;;;;;;;;5013411;28;20728;-30
2022/12/27 17:24:29;;;;;;;5.30;2.57;;;;;;;;;;5025132;28;20602;-31
2022/12/27 17:27:06;;;;;;;4.30;2.53;;;;;;;;;;5029147;28;20270;-30
2022/12/27 17:29:44;;;;;;;7.50;3.30;;;;;;;;;;5025464;28;20222;-28
2022/12/27 17:32:18;;;;;;;6.30;3.33;;;;;;;;;;5020002;28;20236;-26
2022/12/27 17:34:50;;;;;;;4.33;2.60;;;;;;;;;;5024455;28;20637;-31
2022/12/27 17:37:22;;;;;;;5.43;2.80;;;;;;;;;;5025614;28;20213;-28
2022/12/27 17:39:55;;;;;;;4.47;2.67;;;;;;;;;;5027591;28;20211;-28
2022/12/27 17:45:18;;;;;;;5.23;3.90;;;;;;;;;;5022036;28;20680;-32
2022/12/27 17:47:54;;;;;;;3.57;2.50;;;;;;;;;;5023994;28;20218;-30
2022/12/27 17:50:24;;;;;;;3.40;2.80;;;;;;;;;;5026165;28;20230;-29
2022/12/27 17:58:48;;;;;;;5.10;3.77;;;;;;;;;;5017132;28;20229;-29
2022/12/27 18:01:15;;;;;;;6.50;4.50;;;;;;;;;;5022708;28;20480;-25
2022/12/27 18:03:45;;;;;;;5.87;4.07;;;;;;;;;;5025950;28;20207;-31
2022/12/27 18:06:12;;;;;;;4.83;3.53;;;;;;;;;;5020115;28;20222;-29
2022/12/27 18:08:40;;;;;;;4.83;3.97;;;;;;;;;;5025184;28;20210;-28
2022/12/27 18:11:09;;;;;;;5.97;3.63;;;;;;;;;;5023344;28;20654;-29
2022/12/27 18:13:39;;;;;;;5.90;3.97;;;;;;;;;;5019968;28;20239;-30
2022/12/27 18:16:14;;;;;;;5.53;3.13;;;;;;;;;;5027368;28;20213;-27
2022/12/27 18:18:42;;;;;;;6.57;3.73;;;;;;;;;;5024871;28;20221;-31
2022/12/27 18:21:20;;;;;;;4.87;3.20;;;;;;;;;;5028115;28;20257;-29
2022/12/27 18:23:48;;;;;;;6.83;4.17;;;;;;;;;;5027353;28;20434;-28
2022/12/27 18:26:16;;;;;;;18.90;6.03;;;;;;;;;;5025002;28;20682;-29
2022/12/27 18:28:43;;;;;;;11.07;4.83;;;;;;;;;;5023824;28;20202;-26
2022/12/27 18:31:15;;;;;;;6.53;4.13;;;;;;;;;;5030560;28;20237;-28